Detalii statie CORIPLANT MIHALT [0000197B]

Toti senzorii

Date Temperatura solului [C]Precipitatii [mm]Voltaj baterie [mV]Leaf Wetness [Min]HC Air temperature [C]HC Relative humidity [%]Punctul de roua [C]
medieminmaxsumaultimatimpmedieminmaxmediemediemin
2019-06-15 18:00:00 0 7176 31.11 29.49 32.73 100 31 29.4
2019-06-15 19:00:00 0 7176 29.43 28.04 30.35 100 29.3 28
2019-06-15 20:00:00 0 6932 27.18 26.06 27.89 100 27.1 26
2019-06-15 21:00:00 0 6834 24.05 22.92 25.93 100 24 22.9
2019-06-15 22:00:00 0 6806 22.1 21.65 23 100 22 21.6
2019-06-15 23:00:00 0 6796 21.06 20.39 21.61 100 21 20.3
2019-06-16 00:00:00 0 6786 20.07 19.69 20.3 100 20 19.6
2019-06-16 01:00:00 0 6786 18.83 18.22 19.53 100 18.8 18.2
2019-06-16 02:00:00 0 6786 18.06 17.73 18.35 100 18 17.7
2019-06-16 03:00:00 0 6786 17.32 16.95 17.64 100 17.2 16.9
2019-06-16 04:00:00 0 6786 16.81 16.56 17.02 100 16.7 16.5
2019-06-16 05:00:00 0.2 6776 16.3 16.12 16.54 100 16.2 16.1
2019-06-16 06:00:00 0 6844 16.49 16.2 16.92 100 16.4 16.2
2019-06-16 07:00:00 0 6982 17.73 17.07 18.91 100 17.6 17
2019-06-16 08:00:00 0 6992 21.76 19.17 24.43 100 21.7 19.1
2019-06-16 09:00:00 0 7148 26.34 24.77 27.27 100 26.3 24.7
2019-06-16 10:00:00 0 7148 28.7 27.69 29.63 100 28.6 27.6
2019-06-16 11:00:00 0 7148 30.85 30.72 30.99 100 30.8 30.7
2019-06-16 12:00:00 0 7166 31.98 31.06 32.44 100 31.9 31
2019-06-16 13:00:00 0 7176 33.06 32.42 33.81 99.9 32.9 32.4
2019-06-16 14:00:00 0 7166 33.72 32.86 34.18 98.06 33.2 32.1
2019-06-16 15:00:00 0 7166 34.76 33.53 35.74 93.35 33.4 32.2
2019-06-16 16:00:00 0 7166 34.92 34.01 35.94 88.66 32.6 31.9
2019-06-16 17:00:00 0 7158 30.83 29.28 31.85 99.37 30.6 29.2
2019-06-16 18:00:00 0 6874 26.88 24.5 28.48 100 26.8 24.5
2019-06-16 19:00:00 0.2 6844 23.22 22.62 24.01 100 23.1 22.6
2019-06-16 20:00:00 0 6806 21.94 21.52 22.67 100 21.9 21.5
2019-06-16 21:00:00 0 6796 20.81 20.33 21.47 100 20.7 20.3
2019-06-16 22:00:00 0 6786 19.65 19.24 20.13 100 19.6 19.2
2019-06-16 23:00:00 0 6796 18.56 18.09 19.25 100 18.5 18
2019-06-17 00:00:00 0 6796 18.11 17.93 18.35 100 18 17.9
2019-06-17 01:00:00 0 6776 17.47 16.96 17.92 100 17.4 16.9
2019-06-17 02:00:00 0 6786 17 16.76 17.26 100 16.9 16.7
2019-06-17 03:00:00 0 6776 16.9 16.65 17.09 100 16.8 16.6
2019-06-17 04:00:00 0 6776 16.75 16.57 16.97 100 16.7 16.5
2019-06-17 05:00:00 0 6786 17 16.88 17.14 100 16.9 16.8
2019-06-17 06:00:00 0 6894 17.62 17.13 17.99 100 17.5 17.1
2019-06-17 07:00:00 0 7000 18.68 18.06 19.45 100 18.6 18
2019-06-17 08:00:00 0 7020 22.47 19.82 25.53 100 22.4 19.8
2019-06-17 09:00:00 0 7070 26.44 24.58 27.53 100 26.4 24.5
2019-06-17 10:00:00 0 7148 28.36 27.09 29.41 100 28.3 27
2019-06-17 11:00:00 0 7166 28.4 26.63 29.29 100 28.3 26.6
2019-06-17 12:00:00 0 7176 30.1 28.63 30.63 100 30 28.6
2019-06-17 13:00:00 0 7176 31.33 30.41 32.42 99.94 31.2 30.4
2019-06-17 14:00:00 0 7176 32.34 31.3 33.27 97.68 31.8 31.3
2019-06-17 15:00:00 0 7176 33.41 31.21 35.28 93.03 31.9 30.8
2019-06-17 16:00:00 0 7020 31.74 29.49 33.73 98.8 31.4 29.4